Airfield :
LOGIN :

Register | Disclaimer

   EN    FR    IT 

 










Legend :    VFR   Marginal VFR   IFR   Intensive IFR   Very Intensive IFR
Visi :
Ceiling :
>= 8 km
>= 3000ft
5 to 8 km
1000 to 3000 ft
1500m to 5 km
500 to 1000 ft
800 to 1500m
200 to 500 ft
< 800m
< 200 ft
Symbols :   Thunderstorms  Fog  Heavy snow  Heavy precipitations  Wind > 20 kt
SIGMETs :     Misc.  Thunderstorms  Icing  Turbulence  Mountain Waves  Volcanic Ashes






- Airport Elevation : 59 ft
- IATA code : GSE


ESGP - Save AB

CURRENT METAR :
  • 211350Z AUTO 05014KT 9999 NCD 07/M10 Q1028

EXPIRED METARs :
  • 211250Z AUTO 04012KT 360V070 9999 NCD 08/M11 Q1028
  • 211220Z AUTO 02011KT 9999 NCD 08/M10 Q1028
  • 211150Z AUTO 03011KT 350V060 9999 NCD 08/M10 Q1028
  • 211120Z AUTO 05011KT 010V070 9999 NCD 08/M10 Q1028
  • 211050Z AUTO 03009KT 360V060 9999 NCD 08/M09 Q1028
  • 211020Z AUTO 02009KT 350V070 9999 NCD 08/M07 Q1028
  • 210950Z AUTO 06008KT 360V090 9999 NCD 07/M06 Q1028
  • 210920Z AUTO 02009KT 9999 NCD 07/M07 Q1028
  • 210850Z AUTO 05005KT 350V100 9999 NCD 06/M04 Q1028

Expired Forecast.



MET'MAP, your aeronautical weather chart ! - Copyright ORBIFLY December 2007 - Disclaimer

ORBIFLY MET'MAP TEAM :

Programming & Development : Alexandra Zaïnal
Original concept : Baudouin d'Aumeries
Technical & hardware support : Manuel Goepfert
Assistance : Marc-Olivier Méhu




SOURCES & CREDITS :

   NOAA